sensor_id;sensor_type;location;lat;lon;timestamp;P1;durP1;ratioP1;P2;durP2;ratioP2
14965;SDS011;7577;45.226;5.798;2022-08-27T00:01:15;3.23;;;2.80;;
14965;SDS011;7577;45.226;5.798;2022-08-27T00:03:47;3.50;;;3.20;;
14965;SDS011;7577;45.226;5.798;2022-08-27T00:06:17;2.97;;;2.63;;
14965;SDS011;7577;45.226;5.798;2022-08-27T00:08:48;3.20;;;2.50;;
14965;SDS011;7577;45.226;5.798;2022-08-27T00:11:21;3.37;;;3.07;;
14965;SDS011;7577;45.226;5.798;2022-08-27T00:13:52;4.67;;;2.57;;
14965;SDS011;7577;45.226;5.798;2022-08-27T00:16:22;3.43;;;2.63;;
14965;SDS011;7577;45.226;5.798;2022-08-27T00:18:53;3.50;;;2.77;;
14965;SDS011;7577;45.226;5.798;2022-08-27T00:21:24;3.10;;;2.53;;
14965;SDS011;7577;45.226;5.798;2022-08-27T00:23:55;3.27;;;2.97;;
14965;SDS011;7577;45.226;5.798;2022-08-27T00:26:25;3.77;;;2.77;;
14965;SDS011;7577;45.226;5.798;2022-08-27T00:28:56;3.27;;;2.97;;
14965;SDS011;7577;45.226;5.798;2022-08-27T00:31:26;4.03;;;2.90;;
14965;SDS011;7577;45.226;5.798;2022-08-27T00:33:56;3.70;;;3.03;;
14965;SDS011;7577;45.226;5.798;2022-08-27T00:36:37;3.07;;;2.67;;
14965;SDS011;7577;45.226;5.798;2022-08-27T00:39:07;3.20;;;2.90;;
14965;SDS011;7577;45.226;5.798;2022-08-27T00:41:37;4.27;;;2.60;;
14965;SDS011;7577;45.226;5.798;2022-08-27T00:44:08;3.20;;;2.90;;
14965;SDS011;7577;45.226;5.798;2022-08-27T00:46:41;2.83;;;2.53;;
14965;SDS011;7577;45.226;5.798;2022-08-27T00:49:15;3.27;;;2.97;;
14965;SDS011;7577;45.226;5.798;2022-08-27T00:51:47;4.50;;;2.70;;
14965;SDS011;7577;45.226;5.798;2022-08-27T00:54:31;4.17;;;2.57;;
14965;SDS011;7577;45.226;5.798;2022-08-27T00:57:02;3.27;;;2.47;;
14965;SDS011;7577;45.226;5.798;2022-08-27T00:59:33;3.03;;;2.60;;
14965;SDS011;7577;45.226;5.798;2022-08-27T01:02:03;3.57;;;2.90;;
14965;SDS011;7577;45.226;5.798;2022-08-27T01:04:47;2.80;;;2.60;;
14965;SDS011;7577;45.226;5.798;2022-08-27T01:07:20;3.70;;;3.13;;
14965;SDS011;7577;45.226;5.798;2022-08-27T01:09:53;3.67;;;2.90;;
14965;SDS011;7577;45.226;5.798;2022-08-27T01:12:25;3.63;;;2.80;;
14965;SDS011;7577;45.226;5.798;2022-08-27T01:14:59;3.50;;;3.20;;
14965;SDS011;7577;45.226;5.798;2022-08-27T01:17:32;3.33;;;3.03;;
14965;SDS011;7577;45.226;5.798;2022-08-27T01:20:14;3.30;;;3.00;;
14965;SDS011;7577;45.226;5.798;2022-08-27T01:22:47;3.97;;;3.33;;
14965;SDS011;7577;45.226;5.798;2022-08-27T01:25:21;3.40;;;3.10;;
14965;SDS011;7577;45.226;5.798;2022-08-27T01:27:54;3.27;;;2.97;;
14965;SDS011;7577;45.226;5.798;2022-08-27T01:30:26;3.30;;;3.00;;
14965;SDS011;7577;45.226;5.798;2022-08-27T01:32:57;3.80;;;3.17;;
14965;SDS011;7577;45.226;5.798;2022-08-27T01:35:27;4.67;;;3.33;;
14965;SDS011;7577;45.226;5.798;2022-08-27T01:38:08;3.43;;;3.17;;
14965;SDS011;7577;45.226;5.798;2022-08-27T01:40:40;3.50;;;3.20;;
14965;SDS011;7577;45.226;5.798;2022-08-27T01:43:10;4.73;;;3.30;;
14965;SDS011;7577;45.226;5.798;2022-08-27T01:45:44;4.57;;;3.33;;
14965;SDS011;7577;45.226;5.798;2022-08-27T01:48:14;3.27;;;2.97;;
14965;SDS011;7577;45.226;5.798;2022-08-27T01:50:46;3.77;;;3.13;;
14965;SDS011;7577;45.226;5.798;2022-08-27T01:53:18;4.10;;;3.50;;
14965;SDS011;7577;45.226;5.798;2022-08-27T01:56:06;3.23;;;2.93;;
14965;SDS011;7577;45.226;5.798;2022-08-27T01:58:37;3.90;;;3.50;;
14965;SDS011;7577;45.226;5.798;2022-08-27T02:01:08;6.67;;;3.40;;
14965;SDS011;7577;45.226;5.798;2022-08-27T02:03:42;3.73;;;3.40;;
14965;SDS011;7577;45.226;5.798;2022-08-27T02:06:15;4.13;;;3.23;;
14965;SDS011;7577;45.226;5.798;2022-08-27T02:08:46;3.67;;;3.10;;
14965;SDS011;7577;45.226;5.798;2022-08-27T02:11:16;4.20;;;3.30;;
14965;SDS011;7577;45.226;5.798;2022-08-27T02:13:46;3.80;;;3.50;;
14965;SDS011;7577;45.226;5.798;2022-08-27T02:16:17;3.70;;;3.20;;
14965;SDS011;7577;45.226;5.798;2022-08-27T02:18:58;3.90;;;3.50;;
14965;SDS011;7577;45.226;5.798;2022-08-27T02:21:29;3.33;;;3.03;;
14965;SDS011;7577;45.226;5.798;2022-08-27T02:23:59;3.50;;;3.20;;
14965;SDS011;7577;45.226;5.798;2022-08-27T02:26:29;4.10;;;3.70;;
14965;SDS011;7577;45.226;5.798;2022-08-27T02:28:59;4.27;;;3.53;;
14965;SDS011;7577;45.226;5.798;2022-08-27T02:31:29;3.53;;;3.23;;
14965;SDS011;7577;45.226;5.798;2022-08-27T02:33:59;3.93;;;3.63;;
14965;SDS011;7577;45.226;5.798;2022-08-27T02:36:30;3.50;;;3.20;;
14965;SDS011;7577;45.226;5.798;2022-08-27T02:39:14;3.90;;;3.50;;
14965;SDS011;7577;45.226;5.798;2022-08-27T02:41:45;4.27;;;3.30;;
14965;SDS011;7577;45.226;5.798;2022-08-27T02:44:26;3.57;;;3.20;;
14965;SDS011;7577;45.226;5.798;2022-08-27T02:46:58;3.93;;;3.37;;
14965;SDS011;7577;45.226;5.798;2022-08-27T02:49:29;4.37;;;3.30;;
14965;SDS011;7577;45.226;5.798;2022-08-27T02:51:59;3.93;;;3.43;;
14965;SDS011;7577;45.226;5.798;2022-08-27T02:54:40;3.97;;;3.40;;
14965;SDS011;7577;45.226;5.798;2022-08-27T02:57:10;3.87;;;3.50;;
14965;SDS011;7577;45.226;5.798;2022-08-27T02:59:40;3.37;;;3.07;;
14965;SDS011;7577;45.226;5.798;2022-08-27T03:02:11;4.07;;;3.50;;
14965;SDS011;7577;45.226;5.798;2022-08-27T03:04:42;3.60;;;3.30;;
14965;SDS011;7577;45.226;5.798;2022-08-27T03:07:14;4.70;;;3.20;;
14965;SDS011;7577;45.226;5.798;2022-08-27T03:09:44;3.90;;;3.50;;
14965;SDS011;7577;45.226;5.798;2022-08-27T03:12:14;3.33;;;3.03;;
14965;SDS011;7577;45.226;5.798;2022-08-27T03:14:44;4.23;;;3.37;;
14965;SDS011;7577;45.226;5.798;2022-08-27T03:17:15;4.00;;;3.60;;
14965;SDS011;7577;45.226;5.798;2022-08-27T03:19:56;3.50;;;3.20;;
14965;SDS011;7577;45.226;5.798;2022-08-27T03:22:27;3.50;;;3.20;;
14965;SDS011;7577;45.226;5.798;2022-08-27T03:24:58;6.17;;;3.87;;
14965;SDS011;7577;45.226;5.798;2022-08-27T03:27:29;3.93;;;3.63;;
14965;SDS011;7577;45.226;5.798;2022-08-27T03:30:00;3.90;;;3.50;;
14965;SDS011;7577;45.226;5.798;2022-08-27T03:32:31;3.87;;;3.37;;
14965;SDS011;7577;45.226;5.798;2022-08-27T03:35:02;4.17;;;3.77;;
14965;SDS011;7577;45.226;5.798;2022-08-27T03:37:33;3.67;;;3.27;;
14965;SDS011;7577;45.226;5.798;2022-08-27T03:40:03;4.20;;;3.80;;
14965;SDS011;7577;45.226;5.798;2022-08-27T03:42:44;4.27;;;3.80;;
14965;SDS011;7577;45.226;5.798;2022-08-27T03:45:15;4.20;;;3.80;;
14965;SDS011;7577;45.226;5.798;2022-08-27T03:47:45;3.87;;;3.20;;
14965;SDS011;7577;45.226;5.798;2022-08-27T03:50:15;3.90;;;3.60;;
14965;SDS011;7577;45.226;5.798;2022-08-27T03:52:45;3.77;;;3.40;;
14965;SDS011;7577;45.226;5.798;2022-08-27T03:55:15;3.63;;;3.33;;
14965;SDS011;7577;45.226;5.798;2022-08-27T03:57:46;7.97;;;3.70;;
14965;SDS011;7577;45.226;5.798;2022-08-27T04:00:16;5.03;;;3.30;;
14965;SDS011;7577;45.226;5.798;2022-08-27T04:02:47;3.90;;;3.50;;
14965;SDS011;7577;45.226;5.798;2022-08-27T04:05:19;3.47;;;3.07;;
14965;SDS011;7577;45.226;5.798;2022-08-27T04:07:50;5.10;;;3.30;;
14965;SDS011;7577;45.226;5.798;2022-08-27T04:10:20;3.73;;;3.33;;
14965;SDS011;7577;45.226;5.798;2022-08-27T04:13:00;3.77;;;3.47;;
14965;SDS011;7577;45.226;5.798;2022-08-27T04:15:30;4.23;;;3.53;;
14965;SDS011;7577;45.226;5.798;2022-08-27T04:18:00;4.67;;;3.33;;
14965;SDS011;7577;45.226;5.798;2022-08-27T04:20:41;3.80;;;3.40;;
14965;SDS011;7577;45.226;5.798;2022-08-27T04:23:12;5.47;;;3.53;;
14965;SDS011;7577;45.226;5.798;2022-08-27T04:25:43;4.03;;;3.67;;
14965;SDS011;7577;45.226;5.798;2022-08-27T04:28:14;4.80;;;3.60;;
14965;SDS011;7577;45.226;5.798;2022-08-27T04:30:45;4.93;;;3.53;;
14965;SDS011;7577;45.226;5.798;2022-08-27T04:33:16;3.80;;;3.40;;
14965;SDS011;7577;45.226;5.798;2022-08-27T04:35:46;5.27;;;3.70;;
14965;SDS011;7577;45.226;5.798;2022-08-27T04:38:17;3.40;;;3.10;;
14965;SDS011;7577;45.226;5.798;2022-08-27T04:40:48;4.83;;;3.93;;
14965;SDS011;7577;45.226;5.798;2022-08-27T04:43:27;5.00;;;3.60;;
14965;SDS011;7577;45.226;5.798;2022-08-27T04:45:57;4.03;;;3.73;;
14965;SDS011;7577;45.226;5.798;2022-08-27T04:48:28;4.20;;;3.80;;
14965;SDS011;7577;45.226;5.798;2022-08-27T04:50:58;5.23;;;3.87;;
14965;SDS011;7577;45.226;5.798;2022-08-27T04:53:28;4.13;;;3.60;;
14965;SDS011;7577;45.226;5.798;2022-08-27T04:56:12;5.87;;;3.40;;
14965;SDS011;7577;45.226;5.798;2022-08-27T04:58:44;4.10;;;3.70;;
14965;SDS011;7577;45.226;5.798;2022-08-27T05:01:15;4.43;;;4.03;;
14965;SDS011;7577;45.226;5.798;2022-08-27T05:03:51;3.90;;;3.60;;
14965;SDS011;7577;45.226;5.798;2022-08-27T05:06:26;4.00;;;3.60;;
14965;SDS011;7577;45.226;5.798;2022-08-27T05:08:56;3.93;;;3.57;;
14965;SDS011;7577;45.226;5.798;2022-08-27T05:11:27;4.03;;;3.63;;
14965;SDS011;7577;45.226;5.798;2022-08-27T05:14:02;4.97;;;3.60;;
14965;SDS011;7577;45.226;5.798;2022-08-27T05:16:43;4.00;;;3.50;;
14965;SDS011;7577;45.226;5.798;2022-08-27T05:19:13;4.20;;;3.60;;
14965;SDS011;7577;45.226;5.798;2022-08-27T05:21:45;4.87;;;3.90;;
14965;SDS011;7577;45.226;5.798;2022-08-27T05:24:17;3.80;;;3.40;;
14965;SDS011;7577;45.226;5.798;2022-08-27T05:26:51;4.00;;;3.70;;
14965;SDS011;7577;45.226;5.798;2022-08-27T05:29:22;4.53;;;4.07;;
14965;SDS011;7577;45.226;5.798;2022-08-27T05:31:52;4.53;;;4.10;;
14965;SDS011;7577;45.226;5.798;2022-08-27T05:34:39;4.93;;;3.50;;
14965;SDS011;7577;45.226;5.798;2022-08-27T05:37:11;4.47;;;3.80;;
14965;SDS011;7577;45.226;5.798;2022-08-27T05:39:52;3.87;;;3.57;;
14965;SDS011;7577;45.226;5.798;2022-08-27T05:42:25;4.00;;;3.23;;
14965;SDS011;7577;45.226;5.798;2022-08-27T05:45:00;4.07;;;3.63;;
14965;SDS011;7577;45.226;5.798;2022-08-27T05:47:31;5.67;;;3.80;;
14965;SDS011;7577;45.226;5.798;2022-08-27T05:50:18;5.40;;;3.80;;
14965;SDS011;7577;45.226;5.798;2022-08-27T05:52:54;5.53;;;3.87;;
14965;SDS011;7577;45.226;5.798;2022-08-27T05:55:24;3.57;;;3.27;;
14965;SDS011;7577;45.226;5.798;2022-08-27T05:58:11;3.57;;;3.27;;
14965;SDS011;7577;45.226;5.798;2022-08-27T06:01:04;4.37;;;3.43;;
14965;SDS011;7577;45.226;5.798;2022-08-27T06:03:54;4.37;;;3.20;;
14965;SDS011;7577;45.226;5.798;2022-08-27T06:06:25;5.87;;;3.63;;
14965;SDS011;7577;45.226;5.798;2022-08-27T06:09:03;3.70;;;3.40;;
14965;SDS011;7577;45.226;5.798;2022-08-27T06:11:42;3.97;;;3.50;;
14965;SDS011;7577;45.226;5.798;2022-08-27T06:14:14;4.10;;;3.70;;
14965;SDS011;7577;45.226;5.798;2022-08-27T06:17:02;6.43;;;3.33;;
14965;SDS011;7577;45.226;5.798;2022-08-27T06:19:33;4.20;;;3.43;;
14965;SDS011;7577;45.226;5.798;2022-08-27T06:22:12;4.33;;;3.93;;
14965;SDS011;7577;45.226;5.798;2022-08-27T06:24:42;3.67;;;3.37;;
14965;SDS011;7577;45.226;5.798;2022-08-27T06:27:16;3.73;;;3.30;;
14965;SDS011;7577;45.226;5.798;2022-08-27T06:29:48;3.70;;;3.10;;
14965;SDS011;7577;45.226;5.798;2022-08-27T06:32:18;3.63;;;3.20;;
14965;SDS011;7577;45.226;5.798;2022-08-27T06:35:01;3.97;;;3.57;;
14965;SDS011;7577;45.226;5.798;2022-08-27T06:37:33;4.23;;;3.30;;
14965;SDS011;7577;45.226;5.798;2022-08-27T06:40:07;3.87;;;3.47;;
14965;SDS011;7577;45.226;5.798;2022-08-27T06:42:51;3.80;;;3.20;;
14965;SDS011;7577;45.226;5.798;2022-08-27T06:45:25;3.67;;;3.37;;
14965;SDS011;7577;45.226;5.798;2022-08-27T06:48:01;3.67;;;3.33;;
14965;SDS011;7577;45.226;5.798;2022-08-27T06:50:42;3.70;;;3.30;;
14965;SDS011;7577;45.226;5.798;2022-08-27T06:53:16;3.53;;;3.23;;
14965;SDS011;7577;45.226;5.798;2022-08-27T06:55:47;4.87;;;3.70;;
14965;SDS011;7577;45.226;5.798;2022-08-27T06:58:21;5.07;;;3.67;;
14965;SDS011;7577;45.226;5.798;2022-08-27T07:01:00;4.23;;;3.17;;
14965;SDS011;7577;45.226;5.798;2022-08-27T07:03:41;4.87;;;3.67;;
14965;SDS011;7577;45.226;5.798;2022-08-27T07:06:20;6.60;;;3.40;;
14965;SDS011;7577;45.226;5.798;2022-08-27T07:09:09;5.80;;;3.50;;
14965;SDS011;7577;45.226;5.798;2022-08-27T07:11:41;4.53;;;3.57;;
14965;SDS011;7577;45.226;5.798;2022-08-27T07:14:11;3.67;;;3.37;;
14965;SDS011;7577;45.226;5.798;2022-08-27T07:16:56;4.10;;;3.70;;
14965;SDS011;7577;45.226;5.798;2022-08-27T07:19:32;6.20;;;3.80;;
14965;SDS011;7577;45.226;5.798;2022-08-27T07:22:04;4.03;;;3.63;;
14965;SDS011;7577;45.226;5.798;2022-08-27T07:24:34;4.60;;;3.67;;
14965;SDS011;7577;45.226;5.798;2022-08-27T07:27:05;4.03;;;3.60;;
14965;SDS011;7577;45.226;5.798;2022-08-27T07:29:36;4.57;;;4.03;;
14965;SDS011;7577;45.226;5.798;2022-08-27T07:32:06;4.07;;;3.67;;
14965;SDS011;7577;45.226;5.798;2022-08-27T07:34:37;4.40;;;3.70;;
14965;SDS011;7577;45.226;5.798;2022-08-27T07:37:07;4.47;;;3.53;;
14965;SDS011;7577;45.226;5.798;2022-08-27T07:39:40;4.73;;;3.80;;
14965;SDS011;7577;45.226;5.798;2022-08-27T07:42:12;4.13;;;3.77;;
14965;SDS011;7577;45.226;5.798;2022-08-27T07:45:03;5.80;;;3.63;;
14965;SDS011;7577;45.226;5.798;2022-08-27T07:47:33;4.27;;;3.57;;
14965;SDS011;7577;45.226;5.798;2022-08-27T07:50:05;3.80;;;3.50;;
14965;SDS011;7577;45.226;5.798;2022-08-27T07:52:36;3.53;;;3.23;;
14965;SDS011;7577;45.226;5.798;2022-08-27T07:55:06;4.40;;;4.00;;
14965;SDS011;7577;45.226;5.798;2022-08-27T07:57:38;3.70;;;3.40;;
14965;SDS011;7577;45.226;5.798;2022-08-27T08:00:10;4.50;;;3.73;;
14965;SDS011;7577;45.226;5.798;2022-08-27T08:02:41;4.20;;;3.80;;
14965;SDS011;7577;45.226;5.798;2022-08-27T08:05:13;5.57;;;3.60;;
14965;SDS011;7577;45.226;5.798;2022-08-27T08:07:53;5.47;;;3.20;;
14965;SDS011;7577;45.226;5.798;2022-08-27T08:10:30;4.27;;;3.50;;
14965;SDS011;7577;45.226;5.798;2022-08-27T08:13:08;3.63;;;3.33;;
14965;SDS011;7577;45.226;5.798;2022-08-27T08:15:53;3.77;;;3.47;;
14965;SDS011;7577;45.226;5.798;2022-08-27T08:18:24;5.53;;;3.27;;
14965;SDS011;7577;45.226;5.798;2022-08-27T08:21:08;3.67;;;3.20;;
14965;SDS011;7577;45.226;5.798;2022-08-27T08:23:42;4.13;;;3.10;;
14965;SDS011;7577;45.226;5.798;2022-08-27T08:26:13;3.73;;;3.37;;
14965;SDS011;7577;45.226;5.798;2022-08-27T08:28:44;4.57;;;3.40;;
14965;SDS011;7577;45.226;5.798;2022-08-27T08:31:14;5.33;;;3.53;;
14965;SDS011;7577;45.226;5.798;2022-08-27T08:33:45;4.33;;;3.43;;
14965;SDS011;7577;45.226;5.798;2022-08-27T08:36:16;3.30;;;3.00;;
14965;SDS011;7577;45.226;5.798;2022-08-27T08:39:04;5.90;;;3.10;;
14965;SDS011;7577;45.226;5.798;2022-08-27T08:41:47;4.17;;;3.20;;
14965;SDS011;7577;45.226;5.798;2022-08-27T08:44:21;3.37;;;3.07;;
14965;SDS011;7577;45.226;5.798;2022-08-27T08:46:57;5.13;;;3.67;;
14965;SDS011;7577;45.226;5.798;2022-08-27T08:49:35;4.80;;;3.23;;
14965;SDS011;7577;45.226;5.798;2022-08-27T08:52:20;4.67;;;3.47;;
14965;SDS011;7577;45.226;5.798;2022-08-27T08:54:58;3.93;;;3.40;;
14965;SDS011;7577;45.226;5.798;2022-08-27T08:57:31;4.83;;;3.47;;
14965;SDS011;7577;45.226;5.798;2022-08-27T09:00:10;3.97;;;3.67;;
14965;SDS011;7577;45.226;5.798;2022-08-27T09:02:48;4.33;;;3.77;;
14965;SDS011;7577;45.226;5.798;2022-08-27T09:05:16;4.47;;;3.57;;
14965;SDS011;7577;45.226;5.798;2022-08-27T09:07:48;4.20;;;3.43;;
14965;SDS011;7577;45.226;5.798;2022-08-27T09:10:40;4.17;;;3.83;;
14965;SDS011;7577;45.226;5.798;2022-08-27T09:19:29;3.40;;;3.10;;
14965;SDS011;7577;45.226;5.798;2022-08-27T09:22:15;3.50;;;3.20;;
14965;SDS011;7577;45.226;5.798;2022-08-27T09:24:50;6.97;;;4.00;;
14965;SDS011;7577;45.226;5.798;2022-08-27T09:27:22;3.77;;;3.47;;
14965;SDS011;7577;45.226;5.798;2022-08-27T09:30:03;5.83;;;3.10;;
14965;SDS011;7577;45.226;5.798;2022-08-27T09:32:36;3.17;;;2.87;;
14965;SDS011;7577;45.226;5.798;2022-08-27T09:35:10;5.13;;;3.63;;
14965;SDS011;7577;45.226;5.798;2022-08-27T09:37:51;3.67;;;3.37;;
14965;SDS011;7577;45.226;5.798;2022-08-27T09:40:29;3.73;;;3.30;;
14965;SDS011;7577;45.226;5.798;2022-08-27T09:43:08;3.63;;;3.33;;
14965;SDS011;7577;45.226;5.798;2022-08-27T09:46:19;4.60;;;3.50;;
14965;SDS011;7577;45.226;5.798;2022-08-27T09:51:34;3.60;;;3.30;;
14965;SDS011;7577;45.226;5.798;2022-08-27T09:54:20;4.83;;;4.10;;
14965;SDS011;7577;45.226;5.798;2022-08-27T09:57:02;4.03;;;3.57;;
14965;SDS011;7577;45.226;5.798;2022-08-27T09:59:39;3.97;;;3.57;;
14965;SDS011;7577;45.226;5.798;2022-08-27T10:02:23;5.83;;;3.90;;
14965;SDS011;7577;45.226;5.798;2022-08-27T10:05:14;4.40;;;3.83;;
14965;SDS011;7577;45.226;5.798;2022-08-27T10:08:01;6.73;;;3.50;;
14965;SDS011;7577;45.226;5.798;2022-08-27T10:10:42;3.90;;;3.40;;
14965;SDS011;7577;45.226;5.798;2022-08-27T10:13:14;3.97;;;3.67;;
14965;SDS011;7577;45.226;5.798;2022-08-27T10:15:50;4.30;;;3.70;;
14965;SDS011;7577;45.226;5.798;2022-08-27T10:18:25;3.90;;;3.60;;
14965;SDS011;7577;45.226;5.798;2022-08-27T10:21:04;4.70;;;3.73;;
14965;SDS011;7577;45.226;5.798;2022-08-27T10:23:38;3.80;;;3.50;;
14965;SDS011;7577;45.226;5.798;2022-08-27T10:26:17;3.43;;;3.13;;
14965;SDS011;7577;45.226;5.798;2022-08-27T10:28:55;3.63;;;3.33;;
14965;SDS011;7577;45.226;5.798;2022-08-27T10:31:36;3.57;;;3.27;;
14965;SDS011;7577;45.226;5.798;2022-08-27T10:34:25;3.70;;;3.40;;
14965;SDS011;7577;45.226;5.798;2022-08-27T10:37:08;3.30;;;3.00;;
14965;SDS011;7577;45.226;5.798;2022-08-27T10:39:48;3.60;;;3.30;;
14965;SDS011;7577;45.226;5.798;2022-08-27T10:42:29;3.70;;;3.40;;
14965;SDS011;7577;45.226;5.798;2022-08-27T10:48:10;3.67;;;3.20;;
14965;SDS011;7577;45.226;5.798;2022-08-27T10:50:51;3.17;;;2.97;;
14965;SDS011;7577;45.226;5.798;2022-08-27T10:53:27;4.70;;;3.20;;
14965;SDS011;7577;45.226;5.798;2022-08-27T10:56:14;3.60;;;3.30;;
14965;SDS011;7577;45.226;5.798;2022-08-27T10:58:55;5.00;;;3.53;;
14965;SDS011;7577;45.226;5.798;2022-08-27T11:01:32;3.43;;;3.13;;
14965;SDS011;7577;45.226;5.798;2022-08-27T11:04:17;3.20;;;3.00;;
14965;SDS011;7577;45.226;5.798;2022-08-27T11:06:53;4.40;;;3.40;;
14965;SDS011;7577;45.226;5.798;2022-08-27T11:09:32;3.83;;;3.53;;
14965;SDS011;7577;45.226;5.798;2022-08-27T11:12:23;3.80;;;3.50;;
14965;SDS011;7577;45.226;5.798;2022-08-27T11:15:00;3.83;;;3.30;;
14965;SDS011;7577;45.226;5.798;2022-08-27T11:17:36;3.80;;;3.50;;
14965;SDS011;7577;45.226;5.798;2022-08-27T11:20:13;4.33;;;3.93;;
14965;SDS011;7577;45.226;5.798;2022-08-27T11:22:50;3.80;;;3.50;;
14965;SDS011;7577;45.226;5.798;2022-08-27T11:25:42;5.70;;;4.00;;
14965;SDS011;7577;45.226;5.798;2022-08-27T11:28:11;4.40;;;4.00;;
14965;SDS011;7577;45.226;5.798;2022-08-27T11:30:54;5.07;;;3.97;;
14965;SDS011;7577;45.226;5.798;2022-08-27T11:36:37;3.70;;;3.40;;
14965;SDS011;7577;45.226;5.798;2022-08-27T11:39:31;3.90;;;3.60;;
14965;SDS011;7577;45.226;5.798;2022-08-27T11:42:20;4.03;;;3.67;;
14965;SDS011;7577;45.226;5.798;2022-08-27T11:45:17;3.83;;;3.53;;
14965;SDS011;7577;45.226;5.798;2022-08-27T11:47:56;4.33;;;4.00;;
14965;SDS011;7577;45.226;5.798;2022-08-27T11:50:31;3.93;;;3.63;;
14965;SDS011;7577;45.226;5.798;2022-08-27T11:53:07;4.30;;;4.00;;
14965;SDS011;7577;45.226;5.798;2022-08-27T11:55:38;5.67;;;4.20;;
14965;SDS011;7577;45.226;5.798;2022-08-27T11:58:23;4.07;;;3.60;;
14965;SDS011;7577;45.226;5.798;2022-08-27T12:01:25;4.07;;;3.50;;
14965;SDS011;7577;45.226;5.798;2022-08-27T12:04:00;4.30;;;3.90;;
14965;SDS011;7577;45.226;5.798;2022-08-27T12:06:40;3.90;;;3.60;;
14965;SDS011;7577;45.226;5.798;2022-08-27T12:09:24;5.10;;;3.50;;
14965;SDS011;7577;45.226;5.798;2022-08-27T12:12:02;4.30;;;3.80;;
14965;SDS011;7577;45.226;5.798;2022-08-27T12:14:40;4.57;;;4.13;;
14965;SDS011;7577;45.226;5.798;2022-08-27T12:17:18;4.63;;;3.80;;
14965;SDS011;7577;45.226;5.798;2022-08-27T12:20:09;5.20;;;4.10;;
14965;SDS011;7577;45.226;5.798;2022-08-27T12:22:49;5.27;;;4.07;;
14965;SDS011;7577;45.226;5.798;2022-08-27T12:25:38;4.80;;;4.07;;
14965;SDS011;7577;45.226;5.798;2022-08-27T12:28:09;4.60;;;4.00;;
14965;SDS011;7577;45.226;5.798;2022-08-27T12:30:46;4.80;;;4.40;;
14965;SDS011;7577;45.226;5.798;2022-08-27T12:33:29;5.60;;;4.20;;
14965;SDS011;7577;45.226;5.798;2022-08-27T12:36:09;4.23;;;3.83;;
14965;SDS011;7577;45.226;5.798;2022-08-27T12:38:51;4.33;;;4.03;;
14965;SDS011;7577;45.226;5.798;2022-08-27T12:41:29;4.30;;;3.90;;
14965;SDS011;7577;45.226;5.798;2022-08-27T12:44:02;4.40;;;4.00;;
14965;SDS011;7577;45.226;5.798;2022-08-27T12:46:47;4.30;;;4.00;;
14965;SDS011;7577;45.226;5.798;2022-08-27T12:49:22;4.50;;;4.00;;
14965;SDS011;7577;45.226;5.798;2022-08-27T12:51:57;4.80;;;4.30;;
14965;SDS011;7577;45.226;5.798;2022-08-27T12:54:35;5.20;;;4.13;;
14965;SDS011;7577;45.226;5.798;2022-08-27T12:57:18;4.50;;;3.97;;
14965;SDS011;7577;45.226;5.798;2022-08-27T12:59:56;4.20;;;3.90;;
14965;SDS011;7577;45.226;5.798;2022-08-27T13:06:12;4.07;;;3.77;;
14965;SDS011;7577;45.226;5.798;2022-08-27T13:08:55;4.33;;;3.83;;
14965;SDS011;7577;45.226;5.798;2022-08-27T13:11:52;4.50;;;4.10;;
14965;SDS011;7577;45.226;5.798;2022-08-27T13:14:34;4.33;;;3.93;;
14965;SDS011;7577;45.226;5.798;2022-08-27T13:17:15;4.97;;;4.37;;
14965;SDS011;7577;45.226;5.798;2022-08-27T13:19:57;5.20;;;4.20;;
14965;SDS011;7577;45.226;5.798;2022-08-27T13:22:25;4.23;;;3.93;;
14965;SDS011;7577;45.226;5.798;2022-08-27T13:25:20;5.30;;;4.07;;
14965;SDS011;7577;45.226;5.798;2022-08-27T13:27:57;4.57;;;4.17;;
14965;SDS011;7577;45.226;5.798;2022-08-27T13:30:34;4.00;;;3.60;;
14965;SDS011;7577;45.226;5.798;2022-08-27T13:33:12;4.30;;;3.93;;
14965;SDS011;7577;45.226;5.798;2022-08-27T13:35:55;4.20;;;3.90;;
14965;SDS011;7577;45.226;5.798;2022-08-27T13:38:31;4.00;;;3.63;;
14965;SDS011;7577;45.226;5.798;2022-08-27T13:41:06;4.13;;;3.80;;
14965;SDS011;7577;45.226;5.798;2022-08-27T13:43:50;4.07;;;3.77;;
14965;SDS011;7577;45.226;5.798;2022-08-27T13:46:26;4.30;;;3.87;;
14965;SDS011;7577;45.226;5.798;2022-08-27T13:49:11;4.47;;;4.03;;
14965;SDS011;7577;45.226;5.798;2022-08-27T13:51:42;4.00;;;3.70;;
14965;SDS011;7577;45.226;5.798;2022-08-27T13:54:16;4.00;;;3.70;;
14965;SDS011;7577;45.226;5.798;2022-08-27T13:57:08;4.00;;;3.70;;
14965;SDS011;7577;45.226;5.798;2022-08-27T14:00:03;4.33;;;3.83;;
14965;SDS011;7577;45.226;5.798;2022-08-27T14:02:47;4.30;;;3.90;;
14965;SDS011;7577;45.226;5.798;2022-08-27T14:05:29;4.23;;;3.93;;
14965;SDS011;7577;45.226;5.798;2022-08-27T14:11:20;4.37;;;3.97;;
14965;SDS011;7577;45.226;5.798;2022-08-27T14:14:08;4.20;;;3.90;;
14965;SDS011;7577;45.226;5.798;2022-08-27T14:16:45;4.77;;;4.30;;
14965;SDS011;7577;45.226;5.798;2022-08-27T14:19:36;4.57;;;4.17;;
14965;SDS011;7577;45.226;5.798;2022-08-27T14:22:11;4.20;;;3.90;;
14965;SDS011;7577;45.226;5.798;2022-08-27T14:24:53;4.90;;;3.80;;
14965;SDS011;7577;45.226;5.798;2022-08-27T14:27:23;4.57;;;4.17;;
14965;SDS011;7577;45.226;5.798;2022-08-27T14:30:04;3.90;;;3.60;;
14965;SDS011;7577;45.226;5.798;2022-08-27T14:35:55;4.00;;;3.70;;
14965;SDS011;7577;45.226;5.798;2022-08-27T14:44:41;4.30;;;4.00;;
14965;SDS011;7577;45.226;5.798;2022-08-27T14:49:57;3.90;;;3.60;;
14965;SDS011;7577;45.226;5.798;2022-08-27T14:52:31;4.87;;;4.37;;
14965;SDS011;7577;45.226;5.798;2022-08-27T14:55:23;4.07;;;3.70;;
14965;SDS011;7577;45.226;5.798;2022-08-27T14:58:02;4.10;;;3.43;;
14965;SDS011;7577;45.226;5.798;2022-08-27T15:00:43;3.67;;;3.37;;
14965;SDS011;7577;45.226;5.798;2022-08-27T15:03:38;4.53;;;3.67;;
14965;SDS011;7577;45.226;5.798;2022-08-27T15:16:49;5.00;;;3.80;;
14965;SDS011;7577;45.226;5.798;2022-08-27T15:19:42;4.07;;;3.63;;
14965;SDS011;7577;45.226;5.798;2022-08-27T15:22:22;4.30;;;3.90;;
14965;SDS011;7577;45.226;5.798;2022-08-27T15:24:55;4.53;;;3.53;;
14965;SDS011;7577;45.226;5.798;2022-08-27T15:27:41;3.90;;;3.60;;
14965;SDS011;7577;45.226;5.798;2022-08-27T15:30:11;3.77;;;3.47;;
14965;SDS011;7577;45.226;5.798;2022-08-27T15:32:52;3.90;;;3.50;;
14965;SDS011;7577;45.226;5.798;2022-08-27T15:35:43;3.50;;;3.20;;
14965;SDS011;7577;45.226;5.798;2022-08-27T15:38:22;4.03;;;3.60;;
14965;SDS011;7577;45.226;5.798;2022-08-27T15:41:14;3.87;;;3.50;;
14965;SDS011;7577;45.226;5.798;2022-08-27T15:43:45;3.73;;;3.40;;
14965;SDS011;7577;45.226;5.798;2022-08-27T15:46:29;3.80;;;3.50;;
14965;SDS011;7577;45.226;5.798;2022-08-27T15:48:59;3.37;;;3.17;;
14965;SDS011;7577;45.226;5.798;2022-08-27T15:51:34;3.50;;;3.20;;
14965;SDS011;7577;45.226;5.798;2022-08-27T15:54:13;3.60;;;3.30;;
14965;SDS011;7577;45.226;5.798;2022-08-27T15:59:53;4.23;;;3.20;;
14965;SDS011;7577;45.226;5.798;2022-08-27T16:02:42;4.50;;;3.27;;
14965;SDS011;7577;45.226;5.798;2022-08-27T16:05:16;4.03;;;3.37;;
14965;SDS011;7577;45.226;5.798;2022-08-27T16:07:54;3.17;;;2.87;;
14965;SDS011;7577;45.226;5.798;2022-08-27T16:10:27;3.73;;;3.07;;
14965;SDS011;7577;45.226;5.798;2022-08-27T16:13:07;3.13;;;2.83;;
14965;SDS011;7577;45.226;5.798;2022-08-27T16:15:46;3.40;;;3.10;;
14965;SDS011;7577;45.226;5.798;2022-08-27T16:18:21;3.80;;;3.27;;
14965;SDS011;7577;45.226;5.798;2022-08-27T16:21:10;3.87;;;3.30;;
14965;SDS011;7577;45.226;5.798;2022-08-27T16:23:46;3.83;;;3.23;;
14965;SDS011;7577;45.226;5.798;2022-08-27T16:26:17;3.27;;;3.07;;
14965;SDS011;7577;45.226;5.798;2022-08-27T16:28:59;3.87;;;3.50;;
14965;SDS011;7577;45.226;5.798;2022-08-27T16:31:52;4.10;;;3.53;;
14965;SDS011;7577;45.226;5.798;2022-08-27T16:34:27;4.53;;;3.20;;
14965;SDS011;7577;45.226;5.798;2022-08-27T16:37:11;3.53;;;3.23;;
14965;SDS011;7577;45.226;5.798;2022-08-27T16:39:44;3.93;;;3.47;;
14965;SDS011;7577;45.226;5.798;2022-08-27T16:42:20;3.90;;;3.13;;
14965;SDS011;7577;45.226;5.798;2022-08-27T16:44:57;5.10;;;3.40;;